createdAt,value
2016-06-29T00:00:30.711Z,17.25
2016-06-29T00:01:30.685Z,17.28
2016-06-29T00:02:31.305Z,17.26
2016-06-29T00:03:30.678Z,17.15
2016-06-29T00:04:30.660Z,17.1
2016-06-29T00:05:31.253Z,17.13
2016-06-29T00:06:31.244Z,17.1
2016-06-29T00:07:31.243Z,17.06
2016-06-29T00:08:30.197Z,17.06
2016-06-29T00:09:30.605Z,16.92
2016-06-29T00:10:30.587Z,16.93
2016-06-29T00:11:29.978Z,16.96
2016-06-29T00:12:29.960Z,16.86
2016-06-29T00:13:30.552Z,16.88
2016-06-29T00:14:30.560Z,16.88
2016-06-29T00:15:29.925Z,16.75
2016-06-29T00:16:30.522Z,16.78
2016-06-29T00:17:31.131Z,16.78
2016-06-29T00:18:30.517Z,16.74
2016-06-29T00:19:31.118Z,16.89
2016-06-29T00:20:30.513Z,16.77
2016-06-29T00:21:30.514Z,16.78
2016-06-29T00:22:29.846Z,16.86
2016-06-29T00:23:30.433Z,16.77
2016-06-29T00:24:30.417Z,16.74
2016-06-29T00:25:31.027Z,16.8
2016-06-29T00:26:30.434Z,16.67
2016-06-29T00:27:30.393Z,16.89
2016-06-29T00:28:29.766Z,16.83
2016-06-29T00:29:30.358Z,16.75
2016-06-29T00:30:29.723Z,16.67
2016-06-29T00:31:30.338Z,16.77
2016-06-29T00:32:30.374Z,16.78
2016-06-29T00:33:31.043Z,16.75
2016-06-29T00:34:30.322Z,16.78
2016-06-29T00:35:30.901Z,16.77
2016-06-29T00:36:30.904Z,16.88
2016-06-29T00:37:29.655Z,16.81
2016-06-29T00:38:30.260Z,16.78
2016-06-29T00:39:29.641Z,16.85
2016-06-29T00:40:30.237Z,16.81
2016-06-29T00:41:30.832Z,16.8
2016-06-29T00:42:30.214Z,16.83
2016-06-29T00:43:30.827Z,16.81
2016-06-29T00:44:30.799Z,16.9
2016-06-29T00:45:30.223Z,16.92
2016-06-29T00:46:30.782Z,16.85
2016-06-29T00:47:30.159Z,16.95
2016-06-29T00:48:30.164Z,16.88
2016-06-29T00:49:30.739Z,16.9
2016-06-29T00:50:30.106Z,16.95
2016-06-29T00:51:30.115Z,16.88
2016-06-29T00:52:30.090Z,16.9
2016-06-29T00:53:30.700Z,16.89
2016-06-29T00:54:30.123Z,16.89
2016-06-29T00:55:29.447Z,17
2016-06-29T00:56:30.664Z,16.89
2016-06-29T00:57:30.707Z,17
2016-06-29T00:58:29.408Z,16.96
2016-06-29T00:59:30.634Z,16.92
2016-06-29T01:00:30.637Z,16.98
2016-06-29T01:01:30.611Z,16.95
2016-06-29T01:02:29.359Z,16.86
2016-06-29T01:03:30.608Z,16.83
2016-06-29T01:04:29.966Z,16.88
2016-06-29T01:05:29.336Z,16.85
2016-06-29T01:06:29.933Z,16.9
2016-06-29T01:07:29.340Z,16.9
2016-06-29T01:08:29.934Z,16.81
2016-06-29T01:09:29.286Z,16.86
2016-06-29T01:10:30.513Z,16.81
2016-06-29T01:11:29.259Z,16.92
2016-06-29T01:12:29.864Z,16.88
2016-06-29T01:13:29.237Z,16.89
2016-06-29T01:14:29.843Z,16.89
2016-06-29T01:15:30.438Z,16.86
2016-06-29T01:16:29.811Z,16.88
2016-06-29T01:17:29.191Z,16.89
2016-06-29T01:18:29.194Z,16.88
2016-06-29T01:19:29.786Z,16.96
2016-06-29T01:20:30.407Z,16.86
2016-06-29T01:21:29.770Z,16.83
2016-06-29T01:22:29.143Z,16.96
2016-06-29T01:23:29.787Z,16.93
2016-06-29T01:24:30.333Z,16.92
2016-06-29T01:25:29.712Z,16.95
2016-06-29T01:26:29.690Z,16.96
2016-06-29T01:27:30.309Z,16.98
2016-06-29T01:28:29.685Z,16.95
2016-06-29T01:29:29.671Z,16.96
2016-06-29T01:30:29.024Z,16.98
2016-06-29T01:31:29.635Z,16.95
2016-06-29T01:32:30.245Z,16.95
2016-06-29T01:33:29.628Z,16.99
2016-06-29T01:34:30.250Z,17
2016-06-29T01:35:29.584Z,16.96
2016-06-29T01:36:28.962Z,16.98
2016-06-29T01:37:29.565Z,16.96
2016-06-29T01:38:30.186Z,16.98
2016-06-29T01:39:29.559Z,16.9
2016-06-29T01:40:29.539Z,16.98
2016-06-29T01:41:29.578Z,16.83
2016-06-29T01:42:30.149Z,16.95
2016-06-29T01:43:29.498Z,16.95
2016-06-29T01:44:29.484Z,16.95
2016-06-29T01:45:29.473Z,16.83
2016-06-29T01:46:29.462Z,16.85
2016-06-29T01:47:30.067Z,16.86
2016-06-29T01:48:29.474Z,16.86
2016-06-29T01:49:28.828Z,16.88
2016-06-29T01:50:28.796Z,16.88
2016-06-29T01:51:29.387Z,16.88
2016-06-29T01:52:29.403Z,16.88
2016-06-29T01:53:29.405Z,16.88
2016-06-29T01:54:29.360Z,16.89
2016-06-29T01:55:28.738Z,16.88
2016-06-29T01:56:29.333Z,16.77
2016-06-29T01:57:29.998Z,16.83
2016-06-29T01:58:28.695Z,16.85
2016-06-29T01:59:29.295Z,16.77
2016-06-29T02:00:28.678Z,16.95
2016-06-29T02:01:29.914Z,16.77
2016-06-29T02:02:29.273Z,16.78
2016-06-29T02:03:29.969Z,16.77
2016-06-29T02:04:28.632Z,16.81
2016-06-29T02:05:28.609Z,16.75
2016-06-29T02:06:29.243Z,16.8
2016-06-29T02:07:29.819Z,16.8
2016-06-29T02:08:29.615Z,16.86
2016-06-29T02:09:28.569Z,16.83
2016-06-29T02:10:29.790Z,16.8
2016-06-29T02:11:28.559Z,16.78
2016-06-29T02:12:29.162Z,16.9
2016-06-29T02:13:28.528Z,16.78
2016-06-29T02:14:29.123Z,16.78
2016-06-29T02:15:28.497Z,16.83
2016-06-29T02:16:28.477Z,16.78
2016-06-29T02:17:29.697Z,16.88
2016-06-29T02:18:28.498Z,16.8
2016-06-29T02:19:29.055Z,16.8
2016-06-29T02:20:29.659Z,16.81
2016-06-29T02:21:29.651Z,16.83
2016-06-29T02:22:29.022Z,16.78
2016-06-29T02:23:29.017Z,16.8
2016-06-29T02:24:28.439Z,16.83
2016-06-29T02:25:29.611Z,16.85
2016-06-29T02:26:28.387Z,16.7
2016-06-29T02:27:28.962Z,16.83
2016-06-29T02:28:29.578Z,16.8
2016-06-29T02:29:28.940Z,16.78
2016-06-29T02:30:28.321Z,16.71
2016-06-29T02:31:28.937Z,16.73
2016-06-29T02:32:29.517Z,16.68
2016-06-29T02:33:29.624Z,16.74
2016-06-29T02:34:28.882Z,16.77
2016-06-29T02:35:28.262Z,16.59
2016-06-29T02:36:29.490Z,16.58
2016-06-29T02:37:28.839Z,16.58
2016-06-29T02:38:28.894Z,16.59
2016-06-29T02:39:28.207Z,16.59
2016-06-29T02:40:28.821Z,16.59
2016-06-29T02:41:28.795Z,16.6
2016-06-29T02:42:29.387Z,16.62
2016-06-29T02:43:29.398Z,16.52
2016-06-29T02:44:28.155Z,16.56
2016-06-29T02:45:28.750Z,16.42
2016-06-29T02:46:28.131Z,16.48
2016-06-29T02:47:29.337Z,16.42
2016-06-29T02:48:28.088Z,16.37
2016-06-29T02:49:28.694Z,16.37
2016-06-29T02:50:29.382Z,16.41
2016-06-29T02:51:28.682Z,16.37
2016-06-29T02:52:29.330Z,16.31
2016-06-29T02:53:28.662Z,16.31
2016-06-29T02:54:28.646Z,16.25
2016-06-29T02:55:28.634Z,16.22
2016-06-29T02:56:28.608Z,16.16
2016-06-29T02:57:27.984Z,16.16
2016-06-29T02:58:28.588Z,16.16
2016-06-29T02:59:27.966Z,16.18
2016-06-29T03:00:29.188Z,16.18
2016-06-29T03:01:29.215Z,16.11
2016-06-29T03:02:29.165Z,16.22
2016-06-29T03:03:28.543Z,16.15
2016-06-29T03:04:28.501Z,16.18
2016-06-29T03:05:29.130Z,16.15
2016-06-29T03:06:29.110Z,16.18
2016-06-29T03:07:29.158Z,16.15
2016-06-29T03:08:27.908Z,16.18
2016-06-29T03:09:28.460Z,16.18
2016-06-29T03:10:27.834Z,16.18
2016-06-29T03:11:28.431Z,16.16
2016-06-29T03:12:27.809Z,16.16
2016-06-29T03:13:27.800Z,16.22
2016-06-29T03:14:28.413Z,16.16
2016-06-29T03:15:29.006Z,16.2
2016-06-29T03:16:27.752Z,16.22
2016-06-29T03:17:28.361Z,16.22
2016-06-29T03:18:28.939Z,16.22
2016-06-29T03:19:28.329Z,16.11
2016-06-29T03:20:27.704Z,16.18
2016-06-29T03:21:28.305Z,16.18
2016-06-29T03:22:27.678Z,16.15
2016-06-29T03:23:27.683Z,16.16
2016-06-29T03:24:28.275Z,16.14
2016-06-29T03:25:27.640Z,16.16
2016-06-29T03:26:27.617Z,16.15
2016-06-29T03:27:28.222Z,16.09
2016-06-29T03:28:28.848Z,16.07
2016-06-29T03:29:28.240Z,16.06
2016-06-29T03:30:28.814Z,16.04
2016-06-29T03:31:28.173Z,15.93
2016-06-29T03:32:27.554Z,15.92
2016-06-29T03:33:28.420Z,15.94
2016-06-29T03:34:28.764Z,15.92
2016-06-29T03:35:28.751Z,15.94
2016-06-29T03:36:28.754Z,15.92
2016-06-29T03:37:28.736Z,15.89
2016-06-29T03:38:28.702Z,15.84
2016-06-29T03:39:28.082Z,15.79
2016-06-29T03:40:28.071Z,15.79
2016-06-29T03:41:27.429Z,15.78
2016-06-29T03:42:28.678Z,15.85
2016-06-29T03:43:28.026Z,15.68
2016-06-29T03:44:28.639Z,15.74
2016-06-29T03:45:27.999Z,15.72
2016-06-29T03:46:28.615Z,15.68
2016-06-29T03:47:27.377Z,15.67
2016-06-29T03:48:27.371Z,15.72
2016-06-29T03:49:27.950Z,15.64
2016-06-29T03:50:27.933Z,15.61
2016-06-29T03:51:27.334Z,15.68
2016-06-29T03:52:28.561Z,15.63
2016-06-29T03:53:28.579Z,15.61
2016-06-29T03:54:27.897Z,15.64
2016-06-29T03:55:27.889Z,15.66
2016-06-29T03:56:28.472Z,15.64
2016-06-29T03:57:28.473Z,15.64
2016-06-29T03:58:28.454Z,15.66
2016-06-29T03:59:27.224Z,15.66
2016-06-29T04:00:27.941Z,15.66
2016-06-29T04:01:27.909Z,15.63
2016-06-29T04:02:27.184Z,15.74
2016-06-29T04:03:27.167Z,15.78
2016-06-29T04:04:27.755Z,15.66
2016-06-29T04:05:27.139Z,15.7
2016-06-29T04:06:27.125Z,15.76
2016-06-29T04:07:27.731Z,15.72
2016-06-29T04:08:28.339Z,15.72
2016-06-29T04:09:27.703Z,15.72
2016-06-29T04:10:28.306Z,15.68
2016-06-29T04:11:28.288Z,15.72
2016-06-29T04:12:28.277Z,15.74
2016-06-29T04:13:27.647Z,15.64
2016-06-29T04:14:27.642Z,15.76
2016-06-29T04:15:28.226Z,15.75
2016-06-29T04:16:28.240Z,15.72
2016-06-29T04:17:27.595Z,15.67
2016-06-29T04:18:26.985Z,15.72
2016-06-29T04:19:27.567Z,15.68
2016-06-29T04:20:27.590Z,15.7
2016-06-29T04:21:27.556Z,15.67
2016-06-29T04:22:27.545Z,15.74
2016-06-29T04:23:28.129Z,15.81
2016-06-29T04:24:27.517Z,15.76
2016-06-29T04:25:27.500Z,15.85
2016-06-29T04:26:26.870Z,15.79
2016-06-29T04:27:27.489Z,15.79
2016-06-29T04:28:27.469Z,15.85
2016-06-29T04:29:27.247Z,15.86
2016-06-29T04:30:28.071Z,15.7
2016-06-29T04:31:27.437Z,15.74
2016-06-29T04:32:27.433Z,15.79
2016-06-29T04:33:28.079Z,15.78
2016-06-29T04:34:27.424Z,15.86
2016-06-29T04:35:28.036Z,15.76
2016-06-29T04:36:27.388Z,15.79
2016-06-29T04:37:27.974Z,15.74
2016-06-29T04:38:27.343Z,15.75
2016-06-29T04:39:27.934Z,15.84
2016-06-29T04:40:27.920Z,15.88
2016-06-29T04:41:27.304Z,15.94
2016-06-29T04:42:27.290Z,15.88
2016-06-29T04:43:27.270Z,15.85
2016-06-29T04:44:27.275Z,15.89
2016-06-29T04:45:27.284Z,15.81
2016-06-29T04:46:27.770Z,15.79
2016-06-29T04:47:27.861Z,15.79
2016-06-29T04:48:27.866Z,15.82
2016-06-29T04:49:27.849Z,15.84
2016-06-29T04:50:27.203Z,15.85
2016-06-29T04:51:27.191Z,15.72
2016-06-29T04:52:26.558Z,15.79
2016-06-29T04:53:27.151Z,15.78
2016-06-29T04:54:27.133Z,15.79
2016-06-29T04:55:27.144Z,15.78
2016-06-29T04:56:27.735Z,15.84
2016-06-29T04:57:27.101Z,15.76
2016-06-29T04:58:27.093Z,15.84
2016-06-29T04:59:27.758Z,15.85
2016-06-29T05:00:27.087Z,15.88
2016-06-29T05:01:26.426Z,15.88
2016-06-29T05:02:27.657Z,15.96
2016-06-29T05:03:27.044Z,15.97
2016-06-29T05:04:27.019Z,15.94
2016-06-29T05:05:27.046Z,16.07
2016-06-29T05:06:26.377Z,16.15
2016-06-29T05:07:26.979Z,16.15
2016-06-29T05:08:26.957Z,16.18
2016-06-29T05:09:26.973Z,16.23
2016-06-29T05:10:26.954Z,16.25
2016-06-29T05:11:26.943Z,16.25
2016-06-29T05:12:26.302Z,16.27
2016-06-29T05:13:26.925Z,16.26
2016-06-29T05:14:26.276Z,16.16
2016-06-29T05:15:26.883Z,16.26
2016-06-29T05:16:26.867Z,16.26
2016-06-29T05:17:26.859Z,16.23
2016-06-29T05:18:26.231Z,16.25
2016-06-29T05:19:26.223Z,16.25
2016-06-29T05:20:26.867Z,16.31
2016-06-29T05:21:26.807Z,16.27
2016-06-29T05:22:26.805Z,16.35
2016-06-29T05:23:27.390Z,16.3
2016-06-29T05:24:26.806Z,16.33
2016-06-29T05:25:26.764Z,16.27
2016-06-29T05:26:26.749Z,16.33
2016-06-29T05:27:27.341Z,16.26
2016-06-29T05:28:26.871Z,16.3
2016-06-29T05:29:26.718Z,16.23
2016-06-29T05:30:27.321Z,16.26
2016-06-29T05:31:26.716Z,16.35
2016-06-29T05:32:27.305Z,16.38
2016-06-29T05:33:26.658Z,16.33
2016-06-29T05:34:26.035Z,16.41
2016-06-29T05:35:26.635Z,16.4
2016-06-29T05:36:26.653Z,16.33
2016-06-29T05:37:26.002Z,16.26
2016-06-29T05:38:26.610Z,16.18
2016-06-29T05:39:27.206Z,16.15
2016-06-29T05:40:26.573Z,16.15
2016-06-29T05:41:26.567Z,16.11
2016-06-29T05:42:27.161Z,16.16
2016-06-29T05:43:25.921Z,16.22
2016-06-29T05:44:25.942Z,16.2
2016-06-29T05:45:27.169Z,16.27
2016-06-29T05:46:25.883Z,16.3
2016-06-29T05:47:26.501Z,16.42
2016-06-29T05:48:26.476Z,16.44
2016-06-29T05:49:26.458Z,16.4
2016-06-29T05:50:27.074Z,16.4
2016-06-29T05:51:26.436Z,16.27
2016-06-29T05:52:26.417Z,16.3
2016-06-29T05:53:25.826Z,16.37
2016-06-29T05:54:25.778Z,16.35
2016-06-29T05:55:25.778Z,16.38
2016-06-29T05:56:25.809Z,16.37
2016-06-29T05:57:26.364Z,16.48
2016-06-29T05:58:26.355Z,16.37
2016-06-29T05:59:26.964Z,16.37
2016-06-29T06:00:26.948Z,16.26
2016-06-29T06:01:26.939Z,16.34
2016-06-29T06:02:26.306Z,16.27
2016-06-29T06:03:26.915Z,16.3
2016-06-29T06:04:25.653Z,16.2
2016-06-29T06:05:26.259Z,16.18
2016-06-29T06:06:26.252Z,16.15
2016-06-29T06:07:26.248Z,16.15
2016-06-29T06:08:26.227Z,16.12
2016-06-29T06:09:27.051Z,16.07
2016-06-29T06:10:26.223Z,15.97
2016-06-29T06:11:26.204Z,15.94
2016-06-29T06:12:26.192Z,15.97
2016-06-29T06:13:26.186Z,15.88
2016-06-29T06:14:25.552Z,15.86
2016-06-29T06:15:26.761Z,15.92
2016-06-29T06:16:26.190Z,15.94
2016-06-29T06:17:25.509Z,15.89
2016-06-29T06:18:26.979Z,15.92
2016-06-29T06:19:26.722Z,15.84
2016-06-29T06:20:26.097Z,15.93
2016-06-29T06:21:26.087Z,15.88
2016-06-29T06:22:25.449Z,15.84
2016-06-29T06:23:26.670Z,15.79
2016-06-29T06:24:26.047Z,15.79
2016-06-29T06:25:26.650Z,15.82
2016-06-29T06:26:26.023Z,15.79
2016-06-29T06:27:25.389Z,15.82
2016-06-29T06:28:26.606Z,15.82
2016-06-29T06:29:25.978Z,15.92
2016-06-29T06:30:25.958Z,15.94
2016-06-29T06:31:25.347Z,15.93
2016-06-29T06:32:25.957Z,15.89
2016-06-29T06:33:25.931Z,15.96
2016-06-29T06:34:25.928Z,15.94
2016-06-29T06:35:25.279Z,16
2016-06-29T06:36:25.890Z,16.06
2016-06-29T06:37:25.868Z,16.11
2016-06-29T06:38:25.865Z,16.14
2016-06-29T06:39:25.247Z,16.06
2016-06-29T06:40:25.854Z,16.14
2016-06-29T06:41:25.834Z,16.16
2016-06-29T06:42:25.217Z,16.18
2016-06-29T06:43:25.798Z,16.26
2016-06-29T06:44:26.420Z,16.34
2016-06-29T06:45:25.770Z,16.38
2016-06-29T06:46:25.772Z,16.37
2016-06-29T06:47:25.743Z,16.41
2016-06-29T06:48:26.354Z,16.59
2016-06-29T06:49:26.387Z,16.62
2016-06-29T06:50:25.714Z,16.74
2016-06-29T06:51:25.100Z,16.71
2016-06-29T06:52:25.699Z,16.73
2016-06-29T06:53:25.700Z,16.7
2016-06-29T06:54:26.291Z,16.56
2016-06-29T06:55:26.285Z,16.5
2016-06-29T06:56:25.657Z,16.48
2016-06-29T06:57:25.664Z,16.4
2016-06-29T06:58:25.626Z,16.34
2016-06-29T06:59:25.004Z,16.31
2016-06-29T07:00:25.610Z,16.26
2016-06-29T07:01:25.593Z,16.23
2016-06-29T07:02:25.584Z,16.18
2016-06-29T07:03:25.569Z,16.33
2016-06-29T07:04:26.171Z,16.25
2016-06-29T07:05:25.552Z,16.3
2016-06-29T07:06:25.533Z,16.18
2016-06-29T07:07:26.161Z,16.25
2016-06-29T07:08:26.142Z,16.22
2016-06-29T07:09:24.926Z,16.3
2016-06-29T07:10:25.473Z,16.23
2016-06-29T07:11:26.112Z,16.25
2016-06-29T07:12:25.456Z,16.27
2016-06-29T07:13:26.053Z,16.25
2016-06-29T07:14:25.438Z,16.23
2016-06-29T07:15:25.431Z,16.26
2016-06-29T07:16:25.413Z,16.27
2016-06-29T07:17:26.019Z,16.3
2016-06-29T07:18:25.390Z,16.27
2016-06-29T07:19:25.371Z,16.25
2016-06-29T07:20:25.358Z,16.3
2016-06-29T07:21:25.349Z,16.25
2016-06-29T07:22:25.973Z,16.27
2016-06-29T07:23:25.359Z,16.25
2016-06-29T07:24:25.316Z,16.18
2016-06-29T07:25:25.926Z,16.2
2016-06-29T07:26:25.297Z,16.07
2016-06-29T07:27:25.283Z,16.11
2016-06-29T07:28:25.279Z,16.07
2016-06-29T07:29:25.273Z,16.14
2016-06-29T07:30:25.240Z,16.11
2016-06-29T07:31:25.834Z,16.07
2016-06-29T07:32:25.226Z,16.09
2016-06-29T07:33:24.607Z,16.09
2016-06-29T07:34:25.834Z,16.14
2016-06-29T07:35:25.182Z,16.16
2016-06-29T07:36:25.177Z,16.15
2016-06-29T07:37:25.191Z,16.3
2016-06-29T07:38:25.760Z,16.31
2016-06-29T07:39:24.530Z,16.22
2016-06-29T07:40:25.125Z,16.27
2016-06-29T07:41:25.148Z,16.37
2016-06-29T07:42:25.105Z,16.38
2016-06-29T07:43:25.700Z,16.37
2016-06-29T07:44:25.720Z,16.52
2016-06-29T07:45:25.691Z,16.62
2016-06-29T07:46:25.051Z,16.71
2016-06-29T07:47:25.054Z,16.83
2016-06-29T07:48:25.648Z,16.83
2016-06-29T07:49:24.404Z,16.75
2016-06-29T07:50:24.993Z,16.71
2016-06-29T07:51:25.015Z,16.71
2016-06-29T07:52:25.607Z,16.71
2016-06-29T07:53:24.968Z,16.68
2016-06-29T07:54:25.574Z,16.86
2016-06-29T07:55:24.955Z,16.8
2016-06-29T07:56:24.944Z,17.07
2016-06-29T07:57:24.931Z,17.4
2016-06-29T07:58:24.935Z,17.38
2016-06-29T07:59:24.279Z,17.4
2016-06-29T08:00:24.892Z,17.35
2016-06-29T08:01:25.492Z,17.36
2016-06-29T08:02:24.868Z,17.38
2016-06-29T08:03:24.853Z,17.5
2016-06-29T08:04:24.838Z,17.67
2016-06-29T08:05:24.891Z,17.95
2016-06-29T08:06:24.901Z,18.22
2016-06-29T08:07:25.443Z,18.09
2016-06-29T08:08:24.833Z,18.18
2016-06-29T08:09:24.413Z,19.24
2016-06-29T08:10:24.798Z,19.25
2016-06-29T08:11:25.381Z,20.09
2016-06-29T08:12:24.751Z,20.65
2016-06-29T08:13:24.752Z,20.53
2016-06-29T08:14:25.363Z,20.69
2016-06-29T08:15:24.113Z,21.45
2016-06-29T08:16:24.729Z,21.6
2016-06-29T08:17:24.746Z,21.26
2016-06-29T08:18:24.723Z,20.83
2016-06-29T08:19:25.304Z,20.05
2016-06-29T08:20:24.705Z,19.9
2016-06-29T08:21:24.066Z,19.33
2016-06-29T08:22:24.678Z,19.17
2016-06-29T08:23:24.047Z,18.91
2016-06-29T08:24:24.650Z,18.72
2016-06-29T08:25:24.657Z,18.76
2016-06-29T08:26:24.650Z,18.34
2016-06-29T08:27:24.022Z,18.21
2016-06-29T08:28:25.230Z,18.17
2016-06-29T08:29:24.011Z,18.03
2016-06-29T08:30:24.614Z,17.85
2016-06-29T08:31:25.214Z,17.62
2016-06-29T08:32:25.215Z,17.51
2016-06-29T08:33:23.976Z,17.51
2016-06-29T08:34:23.959Z,17.53
2016-06-29T08:35:23.958Z,17.62
2016-06-29T08:36:23.930Z,17.79
2016-06-29T08:37:23.933Z,18.28
2016-06-29T08:38:25.139Z,18.24
2016-06-29T08:39:24.538Z,17.94
2016-06-29T08:40:24.525Z,17.82
2016-06-29T08:41:24.529Z,17.73
2016-06-29T08:42:24.487Z,17.69
2016-06-29T08:43:24.487Z,17.54
2016-06-29T08:44:23.843Z,17.55
2016-06-29T08:45:24.466Z,17.46
2016-06-29T08:46:23.841Z,17.36
2016-06-29T08:47:24.451Z,17.41
2016-06-29T08:48:24.427Z,17.32
2016-06-29T08:49:25.060Z,17.36
2016-06-29T08:50:23.827Z,17.5
2016-06-29T08:51:25.024Z,17.48
2016-06-29T08:52:24.397Z,17.71
2016-06-29T08:53:25.005Z,17.84
2016-06-29T08:54:23.769Z,18.09
2016-06-29T08:55:24.374Z,18.17
2016-06-29T08:56:23.729Z,18.17
2016-06-29T08:57:23.731Z,18.29
2016-06-29T08:58:23.730Z,18.39
2016-06-29T08:59:24.355Z,18.57
2016-06-29T09:00:24.326Z,18.54
2016-06-29T09:01:24.947Z,18.57
2016-06-29T09:02:23.709Z,18.64
2016-06-29T09:03:24.890Z,18.57
2016-06-29T09:04:23.671Z,18.67
2016-06-29T09:05:24.280Z,18.61
2016-06-29T09:06:23.636Z,18.55
2016-06-29T09:07:24.871Z,18.57
2016-06-29T09:08:24.850Z,18.64
2016-06-29T09:09:24.836Z,18.59
2016-06-29T09:10:24.202Z,18.42
2016-06-29T09:11:24.818Z,18.42
2016-06-29T09:12:24.207Z,18.31
2016-06-29T09:13:24.797Z,18.44
2016-06-29T09:14:23.605Z,18.43
2016-06-29T09:15:23.565Z,18.5
2016-06-29T09:16:24.793Z,18.55
2016-06-29T09:17:24.146Z,18.65
2016-06-29T09:18:24.139Z,18.43
2016-06-29T09:19:23.529Z,18.5
2016-06-29T09:20:23.512Z,18.37
2016-06-29T09:21:23.502Z,18.37
2016-06-29T09:22:24.107Z,18.52
2016-06-29T09:23:24.711Z,18.46
2016-06-29T09:24:24.711Z,18.62
2016-06-29T09:25:24.061Z,18.8
2016-06-29T09:26:24.063Z,18.61
2016-06-29T09:27:24.043Z,18.54
2016-06-29T09:28:24.743Z,18.39
2016-06-29T09:29:24.644Z,18.18
2016-06-29T09:30:24.648Z,18.21
2016-06-29T09:31:24.022Z,18.1
2016-06-29T09:32:24.630Z,18.06
2016-06-29T09:33:24.611Z,18.07
2016-06-29T09:34:24.038Z,18
2016-06-29T09:35:23.988Z,17.97
2016-06-29T09:36:24.583Z,17.92
2016-06-29T09:37:23.955Z,17.85
2016-06-29T09:38:24.562Z,17.82
2016-06-29T09:39:23.946Z,17.74
2016-06-29T09:40:24.565Z,17.63
2016-06-29T09:41:23.907Z,17.71
2016-06-29T09:42:23.930Z,17.73
2016-06-29T09:43:23.895Z,17.66
2016-06-29T09:44:23.876Z,17.74
2016-06-29T09:45:24.499Z,17.82
2016-06-29T09:46:24.489Z,17.88
2016-06-29T09:47:23.866Z,17.91
2016-06-29T09:48:23.934Z,17.95
2016-06-29T09:49:24.459Z,18.07
2016-06-29T09:50:24.443Z,18.12
2016-06-29T09:51:23.212Z,18.09
2016-06-29T09:52:23.835Z,18.19
2016-06-29T09:53:23.782Z,18.22
2016-06-29T09:54:24.417Z,18.28
2016-06-29T09:55:23.770Z,18.19
2016-06-29T09:56:24.362Z,18.25
2016-06-29T09:57:24.368Z,18.27
2016-06-29T09:58:23.119Z,18.29
2016-06-29T09:59:24.337Z,18.4
2016-06-29T10:00:23.735Z,18.47
2016-06-29T10:01:23.100Z,18.54
2016-06-29T10:02:23.710Z,18.58
2016-06-29T10:03:24.302Z,18.64
2016-06-29T10:04:23.685Z,18.68
2016-06-29T10:05:23.677Z,18.73
2016-06-29T10:06:24.282Z,18.87
2016-06-29T10:07:24.264Z,18.9
2016-06-29T10:08:24.254Z,18.87
2016-06-29T10:09:23.823Z,18.91
2016-06-29T10:10:23.637Z,18.95
2016-06-29T10:11:24.224Z,18.76
2016-06-29T10:12:24.209Z,18.8
2016-06-29T10:13:22.988Z,18.8
2016-06-29T10:14:23.594Z,19.17
2016-06-29T10:15:23.582Z,19.91
2016-06-29T10:16:23.568Z,20.71
2016-06-29T10:17:24.196Z,21.3
2016-06-29T10:18:23.545Z,21.2
2016-06-29T10:19:22.933Z,20.77
2016-06-29T10:20:23.535Z,20.39
2016-06-29T10:21:22.916Z,20.23
2016-06-29T10:22:24.124Z,20
2016-06-29T10:23:22.895Z,19.8
2016-06-29T10:24:23.492Z,19.68
2016-06-29T10:25:22.889Z,19.78
2016-06-29T10:26:23.494Z,19.8
2016-06-29T10:27:23.489Z,20.06
2016-06-29T10:28:23.474Z,19.9
2016-06-29T10:29:23.459Z,19.79
2016-06-29T10:30:23.469Z,19.7
2016-06-29T10:31:24.050Z,19.57
2016-06-29T10:32:23.431Z,19.53
2016-06-29T10:33:22.821Z,19.54
2016-06-29T10:34:23.427Z,19.6
2016-06-29T10:35:22.799Z,20.38
2016-06-29T10:36:24.023Z,20.99
2016-06-29T10:37:23.410Z,21.41
2016-06-29T10:38:23.391Z,21.91
2016-06-29T10:39:22.772Z,21.91
2016-06-29T10:40:23.993Z,21.9
2016-06-29T10:41:23.370Z,21.59
2016-06-29T10:42:23.500Z,21.41
2016-06-29T10:43:23.360Z,21.29
2016-06-29T10:44:23.348Z,21.54
2016-06-29T10:45:23.350Z,21.56
2016-06-29T10:46:23.346Z,22.06
2016-06-29T10:47:23.323Z,22.31
2016-06-29T10:48:23.953Z,22.78
2016-06-29T10:49:23.953Z,22.89
2016-06-29T10:50:23.949Z,23.23
2016-06-29T10:51:22.752Z,23.39
2016-06-29T10:52:23.917Z,23.32
2016-06-29T10:53:23.297Z,23.19
2016-06-29T10:54:22.666Z,22.53
2016-06-29T10:55:22.676Z,21.94
2016-06-29T10:56:22.673Z,21.45
2016-06-29T10:57:23.958Z,21.23
2016-06-29T10:58:23.277Z,21.39
2016-06-29T10:59:23.961Z,21.23
2016-06-29T11:00:23.878Z,21.32
2016-06-29T11:01:22.642Z,21.56
2016-06-29T11:02:23.261Z,21.36
2016-06-29T11:03:23.238Z,21.21
2016-06-29T11:04:23.243Z,21.41
2016-06-29T11:05:22.631Z,21.3
2016-06-29T11:06:22.673Z,21.29
2016-06-29T11:07:23.233Z,21.27
2016-06-29T11:08:23.223Z,21.27
2016-06-29T11:09:22.598Z,21.27
2016-06-29T11:10:23.827Z,21.34
2016-06-29T11:11:23.834Z,21.59
2016-06-29T11:12:23.824Z,21.54
2016-06-29T11:13:23.222Z,21.56
2016-06-29T11:14:23.816Z,21.48
2016-06-29T11:15:23.825Z,21.6
2016-06-29T11:16:23.806Z,21.72
2016-06-29T11:17:23.192Z,21.59
2016-06-29T11:18:23.174Z,21.9
2016-06-29T11:19:22.546Z,21.94
2016-06-29T11:20:23.758Z,22.19
2016-06-29T11:21:23.733Z,22.41
2016-06-29T11:22:23.143Z,22.25
2016-06-29T11:23:23.120Z,22.02
2016-06-29T11:24:23.737Z,21.85
2016-06-29T11:25:23.135Z,21.79
2016-06-29T11:26:23.743Z,21.76
2016-06-29T11:27:23.127Z,21.59
2016-06-29T11:28:23.090Z,21.27
2016-06-29T11:29:22.498Z,20.96
2016-06-29T11:30:23.109Z,20.87
2016-06-29T11:31:23.096Z,20.76
2016-06-29T11:32:23.079Z,20.93
2016-06-29T11:33:23.690Z,21.08
2016-06-29T11:34:23.678Z,21.32
2016-06-29T11:35:22.447Z,21.36
2016-06-29T11:36:23.049Z,21.53
2016-06-29T11:37:22.435Z,21.46
2016-06-29T11:38:23.665Z,21.44
2016-06-29T11:39:22.444Z,21.23
2016-06-29T11:40:22.446Z,21.23
2016-06-29T11:41:23.614Z,21.02
2016-06-29T11:42:23.008Z,20.91
2016-06-29T11:43:23.645Z,20.76
2016-06-29T11:44:23.602Z,20.66
2016-06-29T11:45:22.989Z,20.49
2016-06-29T11:46:22.984Z,20.41
2016-06-29T11:47:23.011Z,20.25
2016-06-29T11:48:22.972Z,20.2
2016-06-29T11:49:23.591Z,20.24
2016-06-29T11:50:23.569Z,20.39
2016-06-29T11:51:22.937Z,20.5
2016-06-29T11:52:22.939Z,20.72
2016-06-29T11:53:22.935Z,20.71
2016-06-29T11:54:22.923Z,20.81
2016-06-29T11:55:22.307Z,20.79
2016-06-29T11:56:23.538Z,20.71
2016-06-29T11:57:23.541Z,20.66
2016-06-29T11:58:23.512Z,20.72
2016-06-29T11:59:22.902Z,20.89
2016-06-29T12:00:22.893Z,20.98
2016-06-29T12:01:22.930Z,21.11
2016-06-29T12:02:22.875Z,21.35
2016-06-29T12:03:22.853Z,21.34
2016-06-29T12:04:22.850Z,21.27
2016-06-29T12:05:22.855Z,21.11
2016-06-29T12:06:22.833Z,20.96
2016-06-29T12:07:22.834Z,20.99
2016-06-29T12:08:23.427Z,20.87
2016-06-29T12:09:22.414Z,20.84
2016-06-29T12:10:23.398Z,20.81
2016-06-29T12:11:22.795Z,20.91
2016-06-29T12:12:22.791Z,20.91
2016-06-29T12:13:22.783Z,21.48
2016-06-29T12:14:22.771Z,21.97
2016-06-29T12:15:23.367Z,22.64
2016-06-29T12:16:22.754Z,22.82
2016-06-29T12:17:22.148Z,22.96
2016-06-29T12:18:22.148Z,22.9
2016-06-29T12:19:22.762Z,22.86
2016-06-29T12:20:22.123Z,22.78
2016-06-29T12:21:23.327Z,23.02
2016-06-29T12:22:22.709Z,23.19
2016-06-29T12:23:23.350Z,23.39
2016-06-29T12:24:22.725Z,23.6
2016-06-29T12:25:22.695Z,23.62
2016-06-29T12:26:23.322Z,23.61
2016-06-29T12:27:22.694Z,23.77
2016-06-29T12:28:22.702Z,24.17
2016-06-29T12:29:22.693Z,24.5
2016-06-29T12:30:22.669Z,24.77
2016-06-29T12:31:22.692Z,24.23
2016-06-29T12:32:22.666Z,23.97
2016-06-29T12:33:22.683Z,23.49
2016-06-29T12:34:22.082Z,23.49
2016-06-29T12:35:22.669Z,23.65
2016-06-29T12:36:22.649Z,23.83
2016-06-29T12:37:22.642Z,23.79
2016-06-29T12:38:22.027Z,23.6
2016-06-29T12:39:23.254Z,23.65
2016-06-29T12:40:22.633Z,24.12
2016-06-29T12:41:23.258Z,24.37
2016-06-29T12:42:22.689Z,24.77
2016-06-29T12:43:22.028Z,24.94
2016-06-29T12:44:22.652Z,25.1
2016-06-29T12:45:22.018Z,25.19
2016-06-29T12:46:22.612Z,25.2
2016-06-29T12:47:23.242Z,25.24
2016-06-29T12:48:23.245Z,25.34
2016-06-29T12:49:21.999Z,25.3
2016-06-29T12:50:23.234Z,25
2016-06-29T12:51:22.649Z,24.85
2016-06-29T12:52:22.019Z,24.83
2016-06-29T12:53:22.612Z,25.02
2016-06-29T12:54:22.627Z,24.98
2016-06-29T12:55:21.989Z,25.06